Time;durP1;ratioP1;P1;durP2;ratioP2;P2;SDS_P1;SDS_P2;PMS_P1;PMS_P2;Temp;Humidity;BMP_temperature;BMP_pressure;BME280_temperature;BME280_humidity;BME280_pressure;Samples;Min_cycle;Max_cycle;Signal;HPM_P1;HPM_P2
2021/08/01 00:01:06;;;;;;;9.02;7.10;;;17.80;82.40;;;;;;5092758;28;20099;-78
2021/08/01 00:03:32;;;;;;;7.00;6.30;;;17.70;82.70;;;;;;5075816;28;20088;-78
2021/08/01 00:05:58;;;;;;;7.30;6.60;;;17.70;82.90;;;;;;5093556;28;20545;-79
2021/08/01 00:08:24;;;;;;;6.68;6.07;;;17.70;83.00;;;;;;5093664;28;20115;-78
2021/08/01 00:10:50;;;;;;;6.60;6.00;;;17.60;83.30;;;;;;5094259;28;20055;-78
2021/08/01 00:13:16;;;;;;;6.95;6.30;;;17.60;83.50;;;;;;5092460;28;20067;-77
2021/08/01 00:15:41;;;;;;;7.85;7.13;;;17.60;84.00;;;;;;5094502;28;20438;-77
2021/08/01 00:18:07;;;;;;;8.18;6.70;;;17.50;84.00;;;;;;5093865;28;20023;-77
2021/08/01 00:20:33;;;;;;;8.98;7.82;;;17.50;84.20;;;;;;5092589;28;20070;-78
2021/08/01 00:22:58;;;;;;;7.97;7.28;;;17.50;84.50;;;;;;5093363;28;20039;-78
2021/08/01 00:25:24;;;;;;;8.85;7.93;;;17.40;84.60;;;;;;5092750;28;20084;-77
2021/08/01 00:27:50;;;;;;;8.45;7.65;;;17.40;84.60;;;;;;5092433;28;20028;-78
2021/08/01 00:30:16;;;;;;;7.95;7.30;;;17.40;84.70;;;;;;5092963;28;20043;-77
2021/08/01 00:32:43;;;;;;;9.35;7.95;;;17.40;84.70;;;;;;5076173;28;20368;-77
2021/08/01 00:35:09;;;;;;;7.72;6.95;;;17.40;84.90;;;;;;5075825;28;20090;-77
2021/08/01 00:37:35;;;;;;;8.38;7.57;;;17.30;84.90;;;;;;5075474;28;20047;-77
2021/08/01 00:40:01;;;;;;;8.10;6.80;;;17.30;84.90;;;;;;5093268;28;20028;-77
2021/08/01 00:42:26;;;;;;;7.82;7.05;;;17.30;85.00;;;;;;5092030;28;20028;-77
2021/08/01 00:44:52;;;;;;;7.82;7.13;;;17.30;85.10;;;;;;5091919;28;20086;-78
2021/08/01 00:47:18;;;;;;;7.70;7.05;;;17.20;85.20;;;;;;5075416;28;20109;-78
2021/08/01 00:49:44;;;;;;;7.18;6.50;;;17.10;85.40;;;;;;5092289;28;20025;-78
2021/08/01 00:52:11;;;;;;;8.52;7.70;;;17.10;85.50;;;;;;5092414;28;20035;-78
2021/08/01 00:54:37;;;;;;;9.23;8.30;;;17.00;85.70;;;;;;5093424;28;20024;-78
2021/08/01 00:57:04;;;;;;;8.48;7.03;;;16.90;85.90;;;;;;5075333;28;20457;-78
2021/08/01 00:59:39;;;;;;;7.82;7.03;;;16.80;86.20;;;;;;5092465;28;20019;-80
2021/08/01 01:02:12;;;;;;;8.63;7.40;;;16.70;86.50;;;;;;5092203;28;20078;-78
2021/08/01 01:05:02;;;;;;;8.75;7.85;;;16.60;86.60;;;;;;5093845;28;20036;-79
2021/08/01 01:07:56;;;;;;;9.35;8.45;;;16.60;86.90;;;;;;5093383;28;20103;-78
2021/08/01 01:10:29;;;;;;;9.23;8.23;;;16.50;87.30;;;;;;5093942;28;20024;-78
2021/08/01 01:13:11;;;;;;;9.07;7.85;;;16.40;87.60;;;;;;5093498;28;20028;-80
2021/08/01 01:15:47;;;;;;;8.57;7.68;;;16.30;88.20;;;;;;5092361;28;20031;-78
2021/08/01 01:18:19;;;;;;;9.27;7.47;;;16.20;87.90;;;;;;5091846;28;20012;-77
2021/08/01 01:21:22;;;;;;;8.75;7.85;;;16.20;88.00;;;;;;5093612;28;20047;-78
2021/08/01 01:23:55;;;;;;;9.40;8.17;;;16.10;88.20;;;;;;5092676;28;20023;-77
2021/08/01 01:26:36;;;;;;;9.70;8.70;;;16.00;88.30;;;;;;5095938;28;20027;-78
2021/08/01 01:29:17;;;;;;;9.48;8.63;;;16.00;88.50;;;;;;5097505;28;20024;-78
2021/08/01 01:31:54;;;;;;;10.40;9.38;;;15.90;88.70;;;;;;5095921;28;20490;-78
2021/08/01 01:34:29;;;;;;;9.02;8.00;;;15.90;88.90;;;;;;5096430;28;20020;-78
2021/08/01 01:36:56;;;;;;;9.50;8.20;;;15.80;88.90;;;;;;5096539;28;20054;-81
2021/08/01 01:39:23;;;;;;;10.93;8.88;;;15.80;88.90;;;;;;5095516;28;20535;-77
2021/08/01 01:41:50;;;;;;;9.65;8.60;;;15.80;89.10;;;;;;5078719;28;20066;-77
2021/08/01 01:44:17;;;;;;;11.80;9.52;;;15.70;89.30;;;;;;5096276;28;20062;-76
2021/08/01 01:46:44;;;;;;;9.60;8.60;;;15.70;89.70;;;;;;5078811;28;20440;-77
2021/08/01 01:49:11;;;;;;;10.38;9.32;;;15.60;89.70;;;;;;5095040;28;20036;-77
2021/08/01 01:51:38;;;;;;;10.18;9.15;;;15.60;89.90;;;;;;5096045;28;20463;-77
2021/08/01 01:54:07;;;;;;;10.48;9.38;;;15.60;90.00;;;;;;5078482;28;20028;-77
2021/08/01 01:56:35;;;;;;;11.10;9.23;;;15.50;90.00;;;;;;5095216;28;20039;-77
2021/08/01 01:59:02;;;;;;;11.20;9.48;;;15.50;90.20;;;;;;5095103;28;20485;-78
2021/08/01 02:01:28;;;;;;;11.48;8.75;;;15.40;90.30;;;;;;5094693;28;20023;-77
2021/08/01 02:03:54;;;;;;;10.27;9.27;;;15.30;90.30;;;;;;5094757;28;20465;-78
2021/08/01 02:06:20;;;;;;;9.55;8.52;;;15.30;90.40;;;;;;5094631;28;20036;-78
2021/08/01 02:09:16;;;;;;;10.13;8.90;;;15.30;90.40;;;;;;5095195;28;20032;-77
2021/08/01 02:11:48;;;;;;;9.85;8.88;;;15.30;90.50;;;;;;5089005;28;20036;-77
2021/08/01 02:14:25;;;;;;;11.38;9.63;;;15.20;90.50;;;;;;5095034;28;20096;-77
2021/08/01 02:16:57;;;;;;;9.20;8.30;;;15.20;90.60;;;;;;5095940;28;20031;-78
2021/08/01 02:19:25;;;;;;;11.23;9.02;;;15.20;90.60;;;;;;5096133;28;20050;-78
2021/08/01 02:21:51;;;;;;;9.43;8.32;;;15.20;90.60;;;;;;5079616;28;20024;-77
2021/08/01 02:24:18;;;;;;;10.68;9.57;;;15.10;90.60;;;;;;5102547;28;20023;-77
2021/08/01 02:26:45;;;;;;;10.73;9.63;;;15.10;90.70;;;;;;5078653;28;20057;-77
2021/08/01 02:29:13;;;;;;;14.48;10.00;;;15.00;90.80;;;;;;5095459;28;20027;-79
2021/08/01 02:31:40;;;;;;;10.13;9.13;;;15.00;90.90;;;;;;5095466;28;20529;-78
2021/08/01 02:34:07;;;;;;;10.45;9.15;;;15.00;91.00;;;;;;5094589;28;20024;-78
2021/08/01 02:36:33;;;;;;;11.15;9.40;;;14.90;91.00;;;;;;5078690;28;20088;-80
2021/08/01 02:39:00;;;;;;;10.30;9.27;;;15.00;91.10;;;;;;5094688;28;20432;-81
2021/08/01 02:41:36;;;;;;;10.02;9.10;;;14.90;91.10;;;;;;5094365;28;20028;-77
2021/08/01 02:44:32;;;;;;;11.30;10.10;;;14.80;91.20;;;;;;5095363;28;20490;-81
2021/08/01 02:46:59;;;;;;;14.27;10.05;;;14.80;91.20;;;;;;5074266;28;20099;-80
2021/08/01 02:49:33;;;;;;;10.00;9.02;;;14.70;91.30;;;;;;5096011;28;20030;-77
2021/08/01 02:52:00;;;;;;;10.15;9.13;;;14.70;91.40;;;;;;5095041;28;20349;-77
2021/08/01 02:54:27;;;;;;;11.00;9.35;;;14.70;91.40;;;;;;5095716;28;20047;-77
2021/08/01 02:57:00;;;;;;;11.57;9.45;;;14.60;91.40;;;;;;5094320;28;20032;-80
2021/08/01 02:59:27;;;;;;;11.18;9.52;;;14.60;91.50;;;;;;5097056;28;20020;-78
2021/08/01 03:01:55;;;;;;;10.23;8.73;;;14.60;91.50;;;;;;5102439;28;20020;-77
2021/08/01 03:04:24;;;;;;;10.32;9.40;;;14.60;91.50;;;;;;5104939;28;20031;-77
2021/08/01 03:06:52;;;;;;;10.10;9.05;;;14.60;91.60;;;;;;5088592;28;20036;-77
2021/08/01 03:09:18;;;;;;;10.55;9.55;;;14.60;91.60;;;;;;5105935;28;20020;-77
2021/08/01 03:11:43;;;;;;;10.82;9.70;;;14.50;91.60;;;;;;5105720;28;20035;-77
2021/08/01 03:14:11;;;;;;;10.38;9.27;;;14.50;91.60;;;;;;5088682;28;20062;-78
2021/08/01 03:16:37;;;;;;;11.05;9.15;;;14.50;91.70;;;;;;5085029;28;20028;-77
2021/08/01 03:19:03;;;;;;;9.82;8.82;;;14.60;91.70;;;;;;5077353;28;20115;-83
2021/08/01 03:21:29;;;;;;;10.38;9.32;;;14.60;91.70;;;;;;5076643;28;20089;-78
2021/08/01 03:23:54;;;;;;;10.80;9.15;;;14.50;91.70;;;;;;5093916;28;20021;-77
2021/08/01 03:26:20;;;;;;;11.20;9.45;;;14.50;91.70;;;;;;5094456;28;20036;-78
2021/08/01 03:28:45;;;;;;;10.40;9.32;;;14.50;91.70;;;;;;5093760;28;20349;-78
2021/08/01 03:31:11;;;;;;;12.63;9.18;;;14.50;91.70;;;;;;5076227;28;20471;-78
2021/08/01 03:33:37;;;;;;;10.68;9.05;;;14.50;91.70;;;;;;5060054;28;20054;-77
2021/08/01 03:36:03;;;;;;;10.27;9.27;;;14.50;91.80;;;;;;5094860;28;20036;-76
2021/08/01 03:38:29;;;;;;;9.82;8.57;;;14.40;91.70;;;;;;5076511;28;20035;-78
2021/08/01 03:40:55;;;;;;;13.00;8.98;;;14.40;91.70;;;;;;5095112;28;20344;-77
2021/08/01 03:43:21;;;;;;;9.40;8.40;;;14.40;91.70;;;;;;5077004;28;20436;-78
2021/08/01 03:45:47;;;;;;;9.20;8.30;;;14.40;91.70;;;;;;5094107;28;20048;-77
2021/08/01 03:48:12;;;;;;;9.38;8.35;;;14.40;91.80;;;;;;5059000;28;20046;-78
2021/08/01 03:50:38;;;;;;;9.55;8.43;;;14.40;91.80;;;;;;5076850;28;20479;-78
2021/08/01 03:53:04;;;;;;;10.15;8.68;;;14.30;91.80;;;;;;5093476;28;20027;-78
2021/08/01 03:55:29;;;;;;;11.43;8.70;;;14.40;91.80;;;;;;5093320;28;20146;-78
2021/08/01 03:57:55;;;;;;;10.07;8.45;;;14.30;91.80;;;;;;5075786;28;20119;-77
2021/08/01 04:00:21;;;;;;;11.48;9.75;;;14.30;91.80;;;;;;5093962;28;20028;-78
2021/08/01 04:02:46;;;;;;;11.30;9.38;;;14.40;91.80;;;;;;5094284;28;20039;-77
2021/08/01 04:05:12;;;;;;;12.82;9.52;;;14.40;91.80;;;;;;5092621;28;20047;-78
2021/08/01 04:07:37;;;;;;;11.30;9.27;;;14.50;91.80;;;;;;5093725;28;20457;-78
2021/08/01 04:10:04;;;;;;;11.30;9.10;;;14.50;91.80;;;;;;5076259;28;20032;-78
2021/08/01 04:12:31;;;;;;;13.73;9.15;;;14.60;91.80;;;;;;5092969;28;20171;-78
2021/08/01 04:14:57;;;;;;;12.88;9.73;;;14.70;91.70;;;;;;5092823;28;20047;-78
2021/08/01 04:17:23;;;;;;;10.60;9.23;;;14.70;91.60;;;;;;5092616;28;20472;-77
2021/08/01 04:22:25;;;;;;;12.32;9.80;;;14.80;91.50;;;;;;5952230;22;20667;-80
2021/08/01 04:24:51;;;;;;;14.07;9.48;;;14.90;91.40;;;;;;4987649;28;20069;-78
2021/08/01 04:27:17;;;;;;;13.15;9.25;;;14.90;91.40;;;;;;4972515;28;20043;-78
2021/08/01 04:29:43;;;;;;;14.50;9.75;;;15.00;91.40;;;;;;4975738;28;20031;-77
2021/08/01 04:32:08;;;;;;;13.88;9.18;;;15.00;91.30;;;;;;4959402;28;20062;-79
2021/08/01 04:34:34;;;;;;;11.43;8.80;;;15.10;91.30;;;;;;4975788;28;20033;-77
2021/08/01 04:36:59;;;;;;;11.05;8.90;;;15.10;91.20;;;;;;4975255;28;20045;-78
2021/08/01 04:39:25;;;;;;;14.23;8.85;;;15.20;91.10;;;;;;4976106;28;20034;-77
2021/08/01 04:41:51;;;;;;;10.60;8.90;;;15.30;91.00;;;;;;4992912;28;20098;-76
2021/08/01 04:44:16;;;;;;;14.55;9.10;;;15.60;90.80;;;;;;4991625;28;20601;-77
2021/08/01 04:46:42;;;;;;;11.07;8.95;;;15.70;90.60;;;;;;4955886;28;20129;-77
2021/08/01 04:49:07;;;;;;;11.65;8.80;;;16.20;90.30;;;;;;4955690;28;20031;-77
2021/08/01 04:51:33;;;;;;;10.45;8.45;;;16.90;89.20;;;;;;4956427;28;20031;-77
2021/08/01 04:53:59;;;;;;;11.60;8.70;;;17.60;86.80;;;;;;4959032;28;20026;-81
2021/08/01 04:56:24;;;;;;;9.95;7.65;;;17.90;84.90;;;;;;4992038;28;20080;-78
2021/08/01 04:58:50;;;;;;;10.35;7.47;;;17.90;84.20;;;;;;4996157;28;20181;-78
2021/08/01 05:01:19;;;;;;;8.93;6.68;;;18.50;82.80;;;;;;4963458;28;20040;-78
2021/08/01 05:03:45;;;;;;;8.60;6.07;;;19.30;80.20;;;;;;4996080;28;20112;-78
2021/08/01 05:06:11;;;;;;;8.82;5.82;;;19.80;78.30;;;;;;4978776;28;20034;-78
2021/08/01 05:08:38;;;;;;;9.25;5.63;;;20.00;76.80;;;;;;4995464;28;20034;-78
2021/08/01 05:11:03;;;;;;;9.57;6.15;;;19.90;76.30;;;;;;4979007;28;20062;-78
2021/08/01 05:13:29;;;;;;;8.88;5.60;;;19.40;76.80;;;;;;4964155;28;20118;-78
2021/08/01 05:15:55;;;;;;;8.02;5.40;;;19.00;77.80;;;;;;4977124;28;20093;-78
2021/08/01 05:18:21;;;;;;;8.82;5.68;;;18.60;79.00;;;;;;4960087;28;20455;-78
2021/08/01 05:20:47;;;;;;;10.10;6.10;;;18.20;80.00;;;;;;4960422;28;20126;-77
2021/08/01 05:23:13;;;;;;;8.32;5.90;;;17.90;80.90;;;;;;4974799;28;20130;-77
2021/08/01 05:25:40;;;;;;;9.73;6.40;;;17.60;81.60;;;;;;4975486;28;20042;-79
2021/08/01 05:28:06;;;;;;;9.85;6.97;;;17.50;82.20;;;;;;4975578;28;20025;-78
2021/08/01 05:30:31;;;;;;;9.45;6.80;;;17.40;82.60;;;;;;4959895;28;20121;-76
2021/08/01 05:32:57;;;;;;;11.50;7.57;;;17.40;82.90;;;;;;4977125;28;20027;-78
2021/08/01 05:35:23;;;;;;;13.52;7.80;;;17.30;83.00;;;;;;4975732;28;20031;-77
2021/08/01 05:37:48;;;;;;;14.57;8.20;;;17.30;83.20;;;;;;4959454;28;20134;-78
2021/08/01 05:40:14;;;;;;;14.25;8.93;;;17.10;83.30;;;;;;4975414;28;20027;-77
2021/08/01 05:42:40;;;;;;;13.07;9.00;;;17.00;83.60;;;;;;4975535;28;20018;-76
2021/08/01 05:45:06;;;;;;;14.88;8.00;;;17.00;83.90;;;;;;4975277;28;20035;-78
2021/08/01 05:47:36;;;;;;;12.13;8.32;;;16.90;84.10;;;;;;4975305;28;20030;-77
2021/08/01 05:50:02;;;;;;;15.63;9.15;;;16.90;84.10;;;;;;4975302;28;20031;-81
2021/08/01 05:52:27;;;;;;;13.40;9.18;;;16.80;84.10;;;;;;4976349;28;20046;-77
2021/08/01 05:54:53;;;;;;;13.45;8.88;;;16.80;84.30;;;;;;4975484;28;20027;-77
2021/08/01 05:57:19;;;;;;;15.95;9.63;;;16.70;84.40;;;;;;4959446;28;20038;-77
2021/08/01 05:59:45;;;;;;;18.45;9.50;;;16.70;84.60;;;;;;4975944;28;20386;-77
2021/08/01 06:02:11;;;;;;;17.38;9.02;;;16.70;84.70;;;;;;4960216;28;20449;-76
2021/08/01 06:04:37;;;;;;;18.42;9.25;;;16.60;84.80;;;;;;4959845;28;20483;-77
2021/08/01 06:07:03;;;;;;;14.32;9.05;;;16.60;85.00;;;;;;4992865;28;20062;-77
2021/08/01 06:09:28;;;;;;;12.55;8.23;;;16.60;85.00;;;;;;4995699;28;20060;-77
2021/08/01 06:11:54;;;;;;;17.52;9.02;;;16.60;85.00;;;;;;4995962;28;20513;-77
2021/08/01 06:14:20;;;;;;;16.15;8.88;;;16.70;85.10;;;;;;4995798;28;20023;-77
2021/08/01 06:16:45;;;;;;;17.83;9.40;;;16.70;85.00;;;;;;4978809;28;20367;-77
2021/08/01 06:19:11;;;;;;;12.00;9.15;;;16.80;84.90;;;;;;4995763;28;20018;-79
2021/08/01 06:21:37;;;;;;;17.55;10.27;;;16.80;84.80;;;;;;4996929;28;20039;-79
2021/08/01 06:24:03;;;;;;;13.80;9.30;;;16.70;84.80;;;;;;4980585;28;20050;-77
2021/08/01 06:26:28;;;;;;;16.13;10.43;;;16.70;84.90;;;;;;4997452;28;20104;-76
2021/08/01 06:28:54;;;;;;;16.65;10.02;;;16.70;84.80;;;;;;4995761;28;20140;-78
2021/08/01 06:31:20;;;;;;;18.83;10.88;;;16.70;84.90;;;;;;4996112;28;20454;-77
2021/08/01 06:33:46;;;;;;;19.23;10.38;;;16.70;84.90;;;;;;4995510;28;20026;-77
2021/08/01 06:36:13;;;;;;;17.63;10.43;;;16.80;84.90;;;;;;4995117;28;20496;-77
2021/08/01 06:38:40;;;;;;;18.08;10.90;;;16.90;84.80;;;;;;4995127;28;20085;-77
2021/08/01 06:41:06;;;;;;;17.58;10.48;;;16.90;84.60;;;;;;4995809;28;20049;-77
2021/08/01 06:43:32;;;;;;;17.15;10.32;;;16.80;84.50;;;;;;4993959;28;20049;-78
2021/08/01 06:45:58;;;;;;;18.67;10.68;;;16.90;84.50;;;;;;4993810;28;20533;-77
2021/08/01 06:48:24;;;;;;;18.35;9.75;;;16.90;84.40;;;;;;4978555;28;20061;-78
2021/08/01 06:50:50;;;;;;;17.05;10.23;;;16.90;84.30;;;;;;4994825;28;20473;-77
2021/08/01 06:53:17;;;;;;;17.92;10.13;;;16.80;84.20;;;;;;4995355;28;20444;-78
2021/08/01 06:55:42;;;;;;;17.63;10.85;;;16.80;84.40;;;;;;4996625;28;20026;-77
2021/08/01 06:58:08;;;;;;;17.95;10.57;;;16.80;84.40;;;;;;4993826;28;20536;-77
2021/08/01 07:00:34;;;;;;;19.45;10.25;;;16.80;84.40;;;;;;4976170;28;20026;-78
2021/08/01 07:03:01;;;;;;;14.77;9.32;;;16.80;84.40;;;;;;4994313;28;20033;-77
2021/08/01 07:05:28;;;;;;;19.13;11.18;;;16.70;84.30;;;;;;4993698;28;20038;-77
2021/08/01 07:07:55;;;;;;;22.25;11.02;;;16.70;84.30;;;;;;4994193;28;20030;-77
2021/08/01 07:10:21;;;;;;;19.95;10.93;;;16.70;84.40;;;;;;4993784;28;20058;-77
2021/08/01 07:12:47;;;;;;;16.50;9.75;;;16.80;84.40;;;;;;4993414;28;20037;-78
2021/08/01 07:15:18;;;;;;;14.15;10.05;;;16.70;84.50;;;;;;4991997;28;20034;-83
2021/08/01 07:17:44;;;;;;;15.20;9.77;;;16.80;84.40;;;;;;4976041;28;20162;-76
2021/08/01 07:20:12;;;;;;;17.77;10.43;;;16.90;84.30;;;;;;4987506;28;20180;-78
2021/08/01 07:22:38;;;;;;;14.02;10.13;;;16.90;84.10;;;;;;4990256;28;20498;-78
2021/08/01 07:25:05;;;;;;;15.73;9.98;;;16.90;84.00;;;;;;4992917;28;20026;-77
2021/08/01 07:27:31;;;;;;;19.25;10.25;;;17.00;83.90;;;;;;4993016;28;20109;-78
2021/08/01 07:29:57;;;;;;;15.15;10.27;;;17.10;83.70;;;;;;4993797;28;20113;-77
2021/08/01 07:32:23;;;;;;;15.70;10.93;;;17.10;83.60;;;;;;4992163;28;20431;-77
2021/08/01 07:34:49;;;;;;;17.98;11.05;;;17.20;83.50;;;;;;4992544;28;20029;-77
2021/08/01 07:37:16;;;;;;;18.67;12.57;;;17.20;83.40;;;;;;4992364;28;20081;-82
2021/08/01 07:39:43;;;;;;;22.45;13.93;;;17.20;83.20;;;;;;5002694;28;20500;-77
2021/08/01 07:42:15;;;;;;;19.05;14.00;;;17.20;83.10;;;;;;5119701;27;1280574;-77
2021/08/01 07:44:55;;;;;;;22.25;16.10;;;17.20;83.10;;;;;;5129389;28;20028;-77
2021/08/01 07:47:22;;;;;;;21.10;14.18;;;17.20;83.00;;;;;;5113938;28;20019;-79
2021/08/01 07:49:49;;;;;;;19.52;13.35;;;17.20;82.50;;;;;;5129108;28;20027;-76
2021/08/01 07:52:16;;;;;;;18.83;13.55;;;17.20;82.40;;;;;;5129831;28;20023;-77
2021/08/01 07:54:42;;;;;;;19.98;13.77;;;17.20;82.40;;;;;;5129706;28;20104;-77
2021/08/01 07:57:21;;;;;;;18.20;12.50;;;17.20;82.30;;;;;;5129606;28;20054;-77
2021/08/01 07:59:47;;;;;;;17.80;12.55;;;17.30;82.40;;;;;;5129224;28;20466;-76
2021/08/01 08:02:12;;;;;;;22.05;12.75;;;17.30;82.30;;;;;;5112229;28;20084;-77
2021/08/01 08:04:38;;;;;;;19.13;13.30;;;17.30;82.10;;;;;;5112101;28;20390;-78
2021/08/01 08:07:03;;;;;;;19.17;13.05;;;17.40;82.10;;;;;;5112169;28;20031;-78
2021/08/01 08:09:29;;;;;;;18.55;13.25;;;17.40;82.10;;;;;;5113020;28;20080;-77
2021/08/01 08:11:55;;;;;;;17.92;11.73;;;17.40;82.00;;;;;;5129989;28;20042;-77
2021/08/01 08:14:20;;;;;;;19.60;12.75;;;17.50;82.00;;;;;;5131788;28;20032;-82
2021/08/01 08:16:46;;;;;;;14.88;11.45;;;17.60;81.80;;;;;;5129424;28;20462;-77
2021/08/01 08:19:12;;;;;;;15.55;11.00;;;17.70;81.40;;;;;;5125866;28;20110;-77
2021/08/01 08:21:37;;;;;;;16.25;10.45;;;17.80;81.10;;;;;;5130225;28;20039;-77
2021/08/01 08:24:03;;;;;;;19.58;11.73;;;17.80;80.80;;;;;;5127440;28;20391;-77
2021/08/01 08:26:29;;;;;;;14.70;10.25;;;17.90;80.60;;;;;;5121549;28;20110;-77
2021/08/01 08:28:55;;;;;;;15.20;8.77;;;17.90;80.50;;;;;;5112464;28;20432;-78
2021/08/01 08:31:20;;;;;;;12.50;9.38;;;18.00;80.30;;;;;;5111489;28;20532;-76
2021/08/01 08:33:46;;;;;;;15.70;9.23;;;18.10;80.00;;;;;;5094153;28;20024;-76
2021/08/01 08:36:12;;;;;;;13.05;9.55;;;18.20;79.80;;;;;;5093041;28;20032;-76
2021/08/01 08:38:37;;;;;;;13.50;9.25;;;18.30;79.50;;;;;;5075778;28;20028;-77
2021/08/01 08:41:03;;;;;;;21.75;10.65;;;18.40;79.20;;;;;;5113394;28;20046;-76
2021/08/01 08:43:29;;;;;;;11.15;8.57;;;18.50;78.80;;;;;;5158498;27;20043;-75
2021/08/01 08:45:58;;;;;;;12.35;9.27;;;18.50;78.80;;;;;;5115098;28;20176;-75
2021/08/01 08:48:25;;;;;;;17.33;9.02;;;18.70;78.50;;;;;;5109142;28;20028;-77
2021/08/01 08:50:52;;;;;;;16.60;9.85;;;18.80;78.30;;;;;;5124078;28;20059;-78
2021/08/01 08:53:19;;;;;;;16.83;8.95;;;19.00;78.00;;;;;;5100656;28;20035;-77
2021/08/01 08:55:48;;;;;;;20.30;10.23;;;19.10;77.60;;;;;;5116349;28;20092;-77
2021/08/01 08:58:20;;;;;;;16.55;8.85;;;19.20;77.20;;;;;;5114958;28;20370;-78
2021/08/01 09:00:45;;;;;;;18.33;9.70;;;19.30;76.90;;;;;;5112973;28;20485;-77
2021/08/01 09:03:11;;;;;;;14.52;9.02;;;19.40;76.90;;;;;;5110354;28;20083;-77
2021/08/01 09:05:36;;;;;;;14.60;7.88;;;19.30;76.40;;;;;;5114167;28;20031;-77
2021/08/01 09:08:02;;;;;;;14.90;8.23;;;19.30;76.80;;;;;;5114240;28;20458;-78
2021/08/01 09:10:30;;;;;;;14.70;7.82;;;19.40;76.90;;;;;;5113814;28;20382;-79
2021/08/01 09:12:56;;;;;;;10.07;7.68;;;19.40;76.70;;;;;;5114684;28;20024;-78
2021/08/01 09:15:28;;;;;;;12.02;8.50;;;19.40;77.00;;;;;;5115971;28;20016;-79
2021/08/01 09:17:54;;;;;;;12.60;7.30;;;19.30;75.90;;;;;;5098274;28;20111;-78
2021/08/01 09:20:30;;;;;;;10.13;7.28;;;19.30;76.30;;;;;;5097595;28;20189;-76
2021/08/01 09:23:01;;;;;;;11.20;7.32;;;19.50;76.30;;;;;;5114687;28;20054;-79
2021/08/01 09:25:32;;;;;;;12.85;7.20;;;19.60;75.90;;;;;;5114907;28;20031;-78
2021/08/01 09:28:11;;;;;;;13.75;10.60;;;19.80;75.50;;;;;;5114734;28;20032;-79
2021/08/01 09:30:55;;;;;;;12.98;8.68;;;19.90;75.10;;;;;;5115530;28;20517;-78
2021/08/01 09:33:39;;;;;;;13.23;7.78;;;20.00;74.40;;;;;;5114415;28;20027;-78
2021/08/01 09:36:15;;;;;;;12.45;7.95;;;20.10;74.20;;;;;;5095218;28;20036;-78
2021/08/01 09:38:54;;;;;;;12.93;8.93;;;20.10;74.10;;;;;;5096127;28;20043;-78
2021/08/01 09:41:33;;;;;;;13.13;8.32;;;20.10;74.00;;;;;;5093553;28;20040;-78
2021/08/01 09:44:03;;;;;;;9.20;8.20;;;20.30;73.60;;;;;;5098378;28;20550;-78
2021/08/01 09:46:50;;;;;;;12.13;8.10;;;20.60;73.30;;;;;;5115277;28;20031;-79
2021/08/01 09:49:19;;;;;;;9.07;7.35;;;20.90;72.40;;;;;;5119355;28;20115;-78
2021/08/01 09:51:49;;;;;;;9.52;7.22;;;21.00;71.80;;;;;;5115995;28;20479;-78
2021/08/01 09:54:17;;;;;;;11.25;8.80;;;21.00;71.50;;;;;;5114048;28;20019;-78
2021/08/01 09:56:53;;;;;;;11.52;7.90;;;20.90;71.40;;;;;;5105168;28;20121;-79
2021/08/01 09:59:21;;;;;;;11.50;7.90;;;20.80;71.80;;;;;;5094333;28;20027;-78
2021/08/01 10:01:53;;;;;;;9.32;6.70;;;20.80;71.90;;;;;;5112175;28;20024;-79
2021/08/01 10:04:29;;;;;;;10.55;8.10;;;20.90;71.80;;;;;;5118227;28;20047;-79
2021/08/01 10:07:04;;;;;;;11.60;8.05;;;20.90;71.60;;;;;;5109754;28;20740;-78
2021/08/01 10:09:30;;;;;;;11.07;7.47;;;20.90;71.60;;;;;;5101124;28;20034;-79
2021/08/01 10:11:56;;;;;;;11.52;7.55;;;20.90;71.60;;;;;;5099486;28;20471;-77
2021/08/01 10:14:22;;;;;;;12.10;8.27;;;20.80;71.50;;;;;;5102878;28;20060;-78
2021/08/01 10:16:49;;;;;;;15.20;8.65;;;20.80;71.60;;;;;;5112066;28;20047;-79
2021/08/01 10:19:15;;;;;;;9.68;8.30;;;20.90;71.70;;;;;;5113732;28;20028;-80
2021/08/01 10:21:44;;;;;;;13.48;8.68;;;21.40;71.20;;;;;;5112760;28;20130;-85
2021/08/01 10:24:14;;;;;;;14.60;8.95;;;21.80;70.10;;;;;;5111987;28;20035;-79
2021/08/01 10:26:44;;;;;;;11.15;8.07;;;21.90;69.60;;;;;;5101254;28;20064;-84
2021/08/01 10:29:13;;;;;;;10.88;8.13;;;21.90;69.50;;;;;;5112190;28;20019;-79
2021/08/01 10:32:09;;;;;;;13.82;9.25;;;21.90;69.50;;;;;;5112493;28;20081;-80
2021/08/01 10:34:42;;;;;;;15.40;10.27;;;22.10;69.60;;;;;;5112190;28;20416;-81
2021/08/01 10:37:14;;;;;;;11.27;8.93;;;22.70;68.10;;;;;;5114275;28;20084;-79
2021/08/01 10:39:42;;;;;;;11.63;8.65;;;23.10;67.10;;;;;;5114061;28;20035;-79
2021/08/01 10:42:12;;;;;;;10.63;8.80;;;23.50;66.00;;;;;;5095192;28;20139;-78
2021/08/01 10:44:38;;;;;;;9.95;8.13;;;23.90;65.30;;;;;;5114480;28;20024;-79
2021/08/01 10:47:08;;;;;;;10.18;8.52;;;24.40;65.00;;;;;;5114105;28;20084;-78
2021/08/01 10:49:41;;;;;;;11.20;8.98;;;24.90;63.00;;;;;;5112574;28;20023;-80
2021/08/01 10:52:09;;;;;;;11.07;8.20;;;25.10;61.70;;;;;;5113110;28;20023;-80
2021/08/01 10:54:35;;;;;;;10.55;8.52;;;25.20;61.60;;;;;;5112041;28;20454;-77
2021/08/01 10:57:15;;;;;;;9.52;7.63;;;25.40;61.30;;;;;;5111206;28;20106;-78
2021/08/01 10:59:44;;;;;;;11.57;8.65;;;25.70;60.80;;;;;;5112270;28;20020;-78
2021/08/01 11:02:13;;;;;;;11.63;8.55;;;25.90;60.00;;;;;;5111339;28;20059;-77
2021/08/01 11:04:39;;;;;;;10.82;8.40;;;25.90;59.20;;;;;;5108763;28;20024;-77
2021/08/01 11:07:06;;;;;;;11.55;8.63;;;25.90;59.40;;;;;;5099008;28;20100;-78
2021/08/01 11:09:32;;;;;;;9.85;7.57;;;25.90;58.90;;;;;;5105621;28;20028;-79
2021/08/01 11:12:37;;;;;;;9.80;7.97;;;25.80;58.80;;;;;;5111017;28;20043;-79
2021/08/01 11:15:10;;;;;;;10.02;7.97;;;25.70;58.50;;;;;;4993741;28;20073;-79
2021/08/01 11:17:49;;;;;;;10.77;8.20;;;25.40;58.80;;;;;;4982600;28;20168;-79
2021/08/01 11:20:23;;;;;;;11.43;8.30;;;25.00;60.00;;;;;;5074534;28;20081;-77
2021/08/01 11:22:53;;;;;;;11.98;8.77;;;24.90;61.10;;;;;;5115005;28;20061;-83
2021/08/01 11:25:30;;;;;;;12.85;8.70;;;24.70;62.60;;;;;;5115307;28;20564;-80
2021/08/01 11:28:21;;;;;;;9.50;7.60;;;24.40;64.70;;;;;;5106451;28;20031;-77
2021/08/01 11:30:53;;;;;;;11.18;8.00;;;24.20;65.60;;;;;;5099074;28;20085;-81
2021/08/01 11:33:45;;;;;;;9.95;8.05;;;24.10;66.10;;;;;;5091433;28;20110;-77
2021/08/01 11:36:13;;;;;;;12.63;9.50;;;24.30;66.70;;;;;;5110601;28;20053;-78
2021/08/01 11:38:48;;;;;;;12.48;9.82;;;24.80;66.50;;;;;;5111407;28;20024;-78
2021/08/01 11:41:35;;;;;;;11.35;10.15;;;25.20;65.30;;;;;;5109130;28;20023;-79
2021/08/01 11:44:20;;;;;;;9.77;8.20;;;25.30;64.60;;;;;;5089408;28;20031;-78
2021/08/01 11:47:04;;;;;;;13.63;10.75;;;25.50;63.90;;;;;;5103485;28;20077;-78
2021/08/01 11:49:35;;;;;;;13.38;9.20;;;25.70;62.80;;;;;;5111764;28;20031;-78
2021/08/01 11:52:10;;;;;;;11.75;9.65;;;25.50;62.90;;;;;;5112575;28;20127;-78
2021/08/01 11:54:42;;;;;;;9.95;7.68;;;25.70;62.20;;;;;;5110810;28;20027;-78
2021/08/01 11:57:13;;;;;;;14.25;8.70;;;26.00;61.40;;;;;;5094268;28;20375;-78
2021/08/01 11:59:40;;;;;;;6.28;5.68;;;26.30;60.30;;;;;;5099895;28;20100;-78
2021/08/01 12:02:14;;;;;;;8.80;6.10;;;26.40;59.20;;;;;;5095476;28;20540;-78
2021/08/01 12:04:54;;;;;;;8.25;6.63;;;26.60;58.90;;;;;;5104495;28;20028;-79
2021/08/01 12:07:21;;;;;;;7.55;6.07;;;26.80;59.10;;;;;;5113199;28;20023;-79
2021/08/01 12:09:46;;;;;;;5.90;5.38;;;27.10;57.80;;;;;;5112737;28;20094;-78
2021/08/01 12:12:12;;;;;;;7.13;5.57;;;27.30;56.90;;;;;;5111811;28;20119;-78
2021/08/01 12:14:40;;;;;;;7.55;6.28;;;27.60;55.70;;;;;;5113768;28;20494;-79
2021/08/01 12:17:11;;;;;;;5.53;5.03;;;27.50;55.00;;;;;;5112245;28;20466;-79
2021/08/01 12:19:43;;;;;;;7.72;5.50;;;27.30;55.80;;;;;;5112252;28;20020;-79
2021/08/01 12:22:15;;;;;;;7.30;5.53;;;27.30;56.20;;;;;;5111311;28;20035;-78
2021/08/01 12:24:42;;;;;;;7.78;5.82;;;27.20;55.90;;;;;;5111274;28;20092;-79
2021/08/01 12:27:10;;;;;;;7.65;5.95;;;27.10;56.20;;;;;;5112309;28;20035;-78
2021/08/01 12:29:38;;;;;;;12.30;6.93;;;26.90;55.00;;;;;;5114763;28;20077;-78
2021/08/01 12:32:26;;;;;;;8.23;6.35;;;26.40;55.40;;;;;;5112677;28;20044;-79
2021/08/01 12:35:12;;;;;;;13.10;6.18;;;25.50;57.10;;;;;;5092295;28;20036;-80
2021/08/01 12:38:00;;;;;;;6.88;5.53;;;24.90;59.60;;;;;;5102605;28;20024;-79
2021/08/01 12:40:34;;;;;;;7.80;6.32;;;24.40;61.40;;;;;;5096599;28;20051;-79
2021/08/01 12:43:01;;;;;;;9.90;6.93;;;24.20;64.20;;;;;;5096703;28;20060;-81
2021/08/01 12:45:31;;;;;;;7.43;5.65;;;24.00;65.80;;;;;;5101012;28;20024;-77
2021/08/01 12:47:57;;;;;;;7.55;5.50;;;23.60;67.00;;;;;;5114144;28;20024;-77
2021/08/01 12:50:23;;;;;;;9.40;6.68;;;23.20;68.10;;;;;;5114507;28;20032;-77